createdAt,value
2022-12-12T00:00:43.572Z,100220.47
2022-12-12T00:03:10.285Z,100214.44
2022-12-12T00:05:37.241Z,100221.13
2022-12-12T00:08:04.118Z,100230.41
2022-12-12T00:10:30.827Z,100233.75
2022-12-12T00:12:57.500Z,100234.59
2022-12-12T00:15:24.104Z,100229.66
2022-12-12T00:17:50.807Z,100233.13
2022-12-12T00:20:17.502Z,100228.19
2022-12-12T00:22:44.295Z,100235.09
2022-12-12T00:25:11.782Z,100242.84
2022-12-12T00:27:38.757Z,100246.81
2022-12-12T00:30:06.974Z,100250.25
2022-12-12T00:32:33.645Z,100246.06
2022-12-12T00:35:00.195Z,100246.19
2022-12-12T00:37:26.986Z,100251.72
2022-12-12T00:39:53.730Z,100255.16
2022-12-12T00:42:20.262Z,100254.97
2022-12-12T00:44:46.872Z,100260.19
2022-12-12T00:47:13.542Z,100258.72
2022-12-12T00:49:40.202Z,100260.38
2022-12-12T00:52:06.860Z,100262.78
2022-12-12T00:54:34.086Z,100263.94
2022-12-12T00:57:00.727Z,100274.28
2022-12-12T00:59:27.813Z,100279.16
2022-12-12T01:01:54.499Z,100280.63
2022-12-12T01:04:21.363Z,100280.44
2022-12-12T01:06:50.283Z,100283.25
2022-12-12T01:09:16.903Z,100292.88
2022-12-12T01:11:43.540Z,100294.75
2022-12-12T01:14:10.082Z,100302.16
2022-12-12T01:16:36.956Z,100306.84
2022-12-12T01:19:03.652Z,100319.78
2022-12-12T01:21:30.304Z,100319.06
2022-12-12T01:23:56.974Z,100324.66
2022-12-12T01:26:24.740Z,100329.94
2022-12-12T01:28:52.164Z,100333.16
2022-12-12T01:31:18.887Z,100330.09
2022-12-12T01:33:46.422Z,100333.03
2022-12-12T01:36:16.590Z,100340.59
2022-12-12T01:38:48.718Z,100333.91
2022-12-12T01:41:16.235Z,100342.06
2022-12-12T01:43:42.905Z,100343.41
2022-12-12T01:46:30.763Z,100346.41
2022-12-12T01:49:03.770Z,100344.63
2022-12-12T01:51:31.224Z,100338.50
2022-12-12T01:54:02.704Z,100350.94
2022-12-12T01:56:29.764Z,100343.19
2022-12-12T01:58:56.647Z,100346.72
2022-12-12T02:01:23.773Z,100344.66
2022-12-12T02:03:50.506Z,100351.22
2022-12-12T02:06:20.841Z,100350.19
2022-12-12T02:08:47.872Z,100347.47
2022-12-12T02:11:14.509Z,100348.94
2022-12-12T02:13:41.442Z,100349.69
2022-12-12T02:16:23.142Z,100348.47
2022-12-12T02:19:20.418Z,100356.84
2022-12-12T02:21:59.414Z,100357.06
2022-12-12T02:24:47.894Z,100358.25
2022-12-12T02:27:41.027Z,100362.69
2022-12-12T02:30:11.060Z,100368.31
2022-12-12T02:32:46.680Z,100362.34
2022-12-12T02:35:19.246Z,100359.75
2022-12-12T02:37:56.886Z,100361.63
2022-12-12T02:40:51.610Z,100363.22
2022-12-12T02:43:56.864Z,100368.63
2022-12-12T02:46:48.077Z,100363.22
2022-12-12T02:49:50.003Z,100370.66
2022-12-12T02:52:17.798Z,100368.03
2022-12-12T02:54:44.848Z,100368.84
2022-12-12T02:57:20.469Z,100374.81
2022-12-12T02:59:52.327Z,100376.59
2022-12-12T03:02:40.681Z,100377.06
2022-12-12T03:05:50.677Z,100380.41
2022-12-12T03:08:26.397Z,100379.47
2022-12-12T03:10:59.103Z,100374.28
2022-12-12T03:13:45.377Z,100376.00
2022-12-12T03:16:30.243Z,100365.13
2022-12-12T03:19:10.913Z,100372.91
2022-12-12T03:21:50.650Z,100361.25
2022-12-12T03:24:37.502Z,100366.41
2022-12-12T03:27:23.467Z,100371.69
2022-12-12T03:29:55.704Z,100369.25
2022-12-12T03:32:34.522Z,100363.09
2022-12-12T03:35:08.645Z,100364.63
2022-12-12T03:37:38.134Z,100366.78
2022-12-12T03:40:28.396Z,100361.91
2022-12-12T03:43:00.945Z,100362.47
2022-12-12T03:45:29.372Z,100363.56
2022-12-12T03:48:00.995Z,100362.00
2022-12-12T03:50:32.264Z,100364.28
2022-12-12T03:53:32.587Z,100360.94
2022-12-12T03:56:09.734Z,100365.31
2022-12-12T03:58:49.234Z,100364.88
2022-12-12T04:01:19.672Z,100362.28
2022-12-12T04:04:09.509Z,100366.16
2022-12-12T04:06:39.526Z,100367.63
2022-12-12T04:09:33.442Z,100374.25
2022-12-12T04:12:37.560Z,100375.22
2022-12-12T04:15:04.047Z,100368.91
2022-12-12T04:17:41.958Z,100366.69
2022-12-12T04:20:33.770Z,100372.78
2022-12-12T04:23:34.919Z,100374.84
2022-12-12T04:26:27.714Z,100373.31
2022-12-12T04:29:14.615Z,100375.91
2022-12-12T04:32:00.257Z,100379.16
2022-12-12T04:34:44.594Z,100383.59
2022-12-12T04:37:15.333Z,100379.31
2022-12-12T04:39:43.994Z,100386.56
2022-12-12T04:42:12.242Z,100398.63
2022-12-12T04:44:40.860Z,100392.19
2022-12-12T04:47:08.152Z,100394.91
2022-12-12T04:49:36.406Z,100392.19
2022-12-12T04:52:06.706Z,100392.00
2022-12-12T04:54:57.892Z,100391.75
2022-12-12T04:57:28.119Z,100393.34
2022-12-12T04:59:54.912Z,100390.09
2022-12-12T05:02:26.376Z,100388.78
2022-12-12T05:04:58.156Z,100385.72
2022-12-12T05:07:39.256Z,100396.44
2022-12-12T05:10:10.823Z,100387.22
2022-12-12T05:12:49.055Z,100388.25
2022-12-12T05:15:18.024Z,100384.06
2022-12-12T05:18:08.216Z,100396.06
2022-12-12T05:20:34.992Z,100403.91
2022-12-12T05:23:01.617Z,100391.41
2022-12-12T05:25:28.391Z,100391.50
2022-12-12T05:27:55.018Z,100385.75
2022-12-12T05:30:22.077Z,100387.69
2022-12-12T05:32:48.704Z,100384.13
2022-12-12T05:35:15.560Z,100387.78
2022-12-12T05:37:46.638Z,100390.03
2022-12-12T05:40:16.523Z,100389.06
2022-12-12T05:42:43.236Z,100383.03
2022-12-12T05:45:11.166Z,100391.50
2022-12-12T05:47:37.986Z,100393.81
2022-12-12T05:50:05.398Z,100393.13
2022-12-12T05:52:32.236Z,100397.38
2022-12-12T05:54:58.843Z,100396.06
2022-12-12T05:57:25.508Z,100395.66
2022-12-12T05:59:52.126Z,100397.38
2022-12-12T06:02:18.833Z,100393.28
2022-12-12T06:04:47.527Z,100396.06
2022-12-12T06:07:14.080Z,100392.16
2022-12-12T06:09:40.743Z,100395.22
2022-12-12T06:12:07.910Z,100394.28
2022-12-12T06:14:34.649Z,100402.19
2022-12-12T06:17:01.310Z,100397.06
2022-12-12T06:19:27.995Z,100397.88
2022-12-12T06:21:54.573Z,100398.16
2022-12-12T06:24:21.207Z,100396.88
2022-12-12T06:26:47.796Z,100394.66
2022-12-12T06:29:15.193Z,100401.09
2022-12-12T06:31:41.914Z,100398.00
2022-12-12T06:34:08.535Z,100388.31
2022-12-12T06:36:35.331Z,100391.41
2022-12-12T06:39:02.252Z,100394.06
2022-12-12T06:41:30.560Z,100389.97
2022-12-12T06:43:57.485Z,100399.31
2022-12-12T06:46:26.462Z,100397.44
2022-12-12T06:48:54.384Z,100405.00
2022-12-12T06:51:24.466Z,100401.47
2022-12-12T06:53:51.294Z,100409.88
2022-12-12T06:56:20.839Z,100405.84
2022-12-12T06:58:47.771Z,100412.75
2022-12-12T07:01:15.970Z,100416.38
2022-12-12T07:03:42.670Z,100414.63
2022-12-12T07:06:09.285Z,100417.84
2022-12-12T07:08:36.509Z,100419.16
2022-12-12T07:11:08.790Z,100424.38
2022-12-12T07:13:35.540Z,100418.34
2022-12-12T07:16:02.287Z,100419.19
2022-12-12T07:18:29.196Z,100418.31
2022-12-12T07:20:55.801Z,100425.56
2022-12-12T07:23:22.512Z,100428.63
2022-12-12T07:25:49.150Z,100433.94
2022-12-12T07:28:15.998Z,100424.53
2022-12-12T07:30:45.573Z,100426.84
2022-12-12T07:33:13.973Z,100423.59
2022-12-12T07:35:41.692Z,100419.88
2022-12-12T07:38:09.320Z,100423.13
2022-12-12T07:40:36.055Z,100430.31
2022-12-12T07:43:02.977Z,100430.53
2022-12-12T07:45:29.846Z,100432.25
2022-12-12T07:47:56.467Z,100435.06
2022-12-12T07:50:23.517Z,100430.97
2022-12-12T07:52:50.146Z,100432.75
2022-12-12T07:55:16.793Z,100436.94
2022-12-12T07:57:43.528Z,100427.03
2022-12-12T08:00:13.364Z,100429.09
2022-12-12T08:02:40.091Z,100434.00
2022-12-12T08:05:07.231Z,100429.44
2022-12-12T08:07:33.903Z,100423.41
2022-12-12T08:10:00.519Z,100436.81
2022-12-12T08:12:29.754Z,100434.06
2022-12-12T08:14:56.373Z,100436.16
2022-12-12T08:17:23.139Z,100432.59
2022-12-12T08:19:49.865Z,100432.25
2022-12-12T08:22:16.451Z,100428.81
2022-12-12T08:24:43.142Z,100426.69
2022-12-12T08:27:15.379Z,100425.88
2022-12-12T08:29:43.384Z,100418.66
2022-12-12T08:32:10.194Z,100423.59
2022-12-12T08:34:36.826Z,100424.13
2022-12-12T08:37:03.434Z,100420.84
2022-12-12T08:39:31.373Z,100416.44
2022-12-12T08:41:58.479Z,100414.97
2022-12-12T08:44:25.069Z,100410.47
2022-12-12T08:46:51.828Z,100418.66
2022-12-12T08:49:18.418Z,100412.19
2022-12-12T08:51:45.070Z,100414.28
2022-12-12T08:54:14.603Z,100416.56
2022-12-12T08:56:41.431Z,100411.34
2022-12-12T08:59:08.094Z,100413.81
2022-12-12T09:01:35.034Z,100416.56
2022-12-12T09:04:02.263Z,100406.53
2022-12-12T09:06:28.927Z,100409.47
2022-12-12T09:08:57.329Z,100415.25
2022-12-12T09:11:24.300Z,100420.59
2022-12-12T09:13:51.401Z,100414.03
2022-12-12T09:16:19.499Z,100410.56
2022-12-12T09:18:49.113Z,100404.94
2022-12-12T09:21:16.958Z,100409.22
2022-12-12T09:23:43.618Z,100407.66
2022-12-12T09:26:10.792Z,100410.16
2022-12-12T09:28:37.588Z,100406.63
2022-12-12T09:31:06.658Z,100410.09
2022-12-12T09:33:33.866Z,100408.50
2022-12-12T09:36:02.215Z,100405.66
2022-12-12T09:38:28.904Z,100404.66
2022-12-12T09:41:04.678Z,100399.22
2022-12-12T09:43:37.744Z,100403.28
2022-12-12T09:46:14.482Z,100404.44
2022-12-12T09:48:44.775Z,100404.22
2022-12-12T09:51:11.842Z,100402.25
2022-12-12T09:53:40.438Z,100401.38
2022-12-12T09:56:31.839Z,100404.56
2022-12-12T09:59:21.591Z,100395.44
2022-12-12T10:02:25.988Z,100398.91
2022-12-12T10:04:58.630Z,100392.09
2022-12-12T10:07:43.511Z,100385.91
2022-12-12T10:10:20.946Z,100391.28
2022-12-12T10:12:48.269Z,100387.59
2022-12-12T10:15:25.426Z,100386.56
2022-12-12T10:17:52.535Z,100382.88
2022-12-12T10:20:19.241Z,100383.00
2022-12-12T10:22:48.494Z,100383.59
2022-12-12T10:25:23.977Z,100382.56
2022-12-12T10:27:54.064Z,100383.41
2022-12-12T10:30:21.116Z,100375.13
2022-12-12T10:33:26.432Z,100371.25
2022-12-12T10:36:04.420Z,100367.78
2022-12-12T10:38:59.369Z,100360.88
2022-12-12T10:41:32.060Z,100362.53
2022-12-12T10:44:20.139Z,100357.94
2022-12-12T10:46:54.497Z,100355.13
2022-12-12T10:49:23.366Z,100353.13
2022-12-12T10:51:50.704Z,100351.25
2022-12-12T10:54:27.587Z,100355.13
2022-12-12T10:57:10.485Z,100346.53
2022-12-12T10:59:50.932Z,100357.50
2022-12-12T11:02:27.742Z,100346.50
2022-12-12T11:05:07.027Z,100348.91
2022-12-12T11:07:46.258Z,100354.75
2022-12-12T11:10:22.004Z,100342.50
2022-12-12T11:13:00.563Z,100330.53
2022-12-12T11:15:38.163Z,100337.34
2022-12-12T11:18:06.527Z,100338.78
2022-12-12T11:20:33.288Z,100339.75
2022-12-12T11:22:59.897Z,100341.19
2022-12-12T11:25:32.008Z,100330.75
2022-12-12T11:28:06.391Z,100331.25
2022-12-12T11:30:33.667Z,100324.13
2022-12-12T11:33:00.828Z,100333.56
2022-12-12T11:35:41.155Z,100322.28
2022-12-12T11:38:18.540Z,100318.47
2022-12-12T11:40:45.789Z,100315.38
2022-12-12T11:43:30.158Z,100310.47
2022-12-12T11:46:15.027Z,100310.25
2022-12-12T11:48:47.588Z,100302.16
2022-12-12T11:51:31.356Z,100298.13
2022-12-12T11:53:58.187Z,100305.06
2022-12-12T11:56:45.248Z,100291.91
2022-12-12T11:59:30.616Z,100289.78
2022-12-12T12:02:16.351Z,100285.72
2022-12-12T12:05:03.874Z,100275.25
2022-12-12T12:07:36.508Z,100275.13
2022-12-12T12:10:11.752Z,100262.84
2022-12-12T12:12:56.970Z,100267.72
2022-12-12T12:15:29.412Z,100265.44
2022-12-12T12:18:08.058Z,100262.31
2022-12-12T12:20:37.352Z,100265.66
2022-12-12T12:23:11.167Z,100254.66
2022-12-12T12:25:49.668Z,100251.66
2022-12-12T12:28:31.143Z,100249.94
2022-12-12T12:31:26.682Z,100237.06
2022-12-12T12:34:02.625Z,100230.44
2022-12-12T12:37:00.782Z,100217.16
2022-12-12T12:39:46.582Z,100224.97
2022-12-12T12:42:37.786Z,100210.38
2022-12-12T12:45:16.590Z,100211.97
2022-12-12T12:47:54.725Z,100204.47
2022-12-12T12:50:28.404Z,100191.91
2022-12-12T12:52:59.430Z,100179.50
2022-12-12T12:55:35.683Z,100174.84
2022-12-12T12:58:04.606Z,100169.97
2022-12-12T13:00:31.402Z,100149.53
2022-12-12T13:03:01.125Z,100142.63
2022-12-12T13:05:51.697Z,100132.66
2022-12-12T13:08:21.263Z,100130.34
2022-12-12T13:10:50.590Z,100113.75
2022-12-12T13:13:24.096Z,100105.72
2022-12-12T13:16:17.209Z,100102.28
2022-12-12T13:18:46.180Z,100103.09
2022-12-12T13:21:15.901Z,100093.00
2022-12-12T13:24:04.604Z,100086.72
2022-12-12T13:26:49.651Z,100089.09
2022-12-12T13:29:34.714Z,100082.16
2022-12-12T13:32:22.851Z,100081.47
2022-12-12T13:34:52.818Z,100072.19
2022-12-12T13:37:21.360Z,100074.66
2022-12-12T13:40:01.326Z,100069.41
2022-12-12T13:42:57.948Z,100072.56
2022-12-12T13:45:38.475Z,100065.78
2022-12-12T13:48:35.419Z,100065.63
2022-12-12T13:51:27.306Z,100061.06
2022-12-12T13:54:13.627Z,100058.97
2022-12-12T13:57:11.469Z,100053.88
2022-12-12T13:59:53.425Z,100052.31
2022-12-12T14:02:32.347Z,100040.75
2022-12-12T14:05:21.687Z,100047.50
2022-12-12T14:07:53.834Z,100040.31
2022-12-12T14:10:26.579Z,100031.72
2022-12-12T14:12:54.015Z,100033.06
2022-12-12T14:15:23.939Z,100030.00
2022-12-12T14:17:58.999Z,100023.44
2022-12-12T14:20:36.138Z,100027.97
2022-12-12T14:23:05.423Z,100024.06
2022-12-12T14:25:37.366Z,100023.50
2022-12-12T14:28:21.190Z,100020.16
2022-12-12T14:30:56.789Z,100019.13
2022-12-12T14:33:46.673Z,100019.06
2022-12-12T14:36:19.654Z,100019.38
2022-12-12T14:39:27.864Z,100015.97
2022-12-12T14:41:55.132Z,100023.63
2022-12-12T14:44:36.928Z,100022.63
2022-12-12T14:47:08.817Z,100025.03
2022-12-12T14:49:35.496Z,100029.47
2022-12-12T14:52:02.254Z,100020.91
2022-12-12T14:54:28.902Z,100021.06
2022-12-12T14:56:59.022Z,100020.22
2022-12-12T14:59:34.365Z,100024.78
2022-12-12T15:02:14.881Z,100023.97
2022-12-12T15:04:45.466Z,100019.66
2022-12-12T15:07:33.351Z,100018.94
2022-12-12T15:10:00.079Z,100016.94
2022-12-12T15:12:33.160Z,100022.03
2022-12-12T15:14:59.775Z,100024.25
2022-12-12T15:17:32.910Z,100022.56
2022-12-12T15:20:02.538Z,100020.41
2022-12-12T15:22:37.187Z,100028.88
2022-12-12T15:25:15.909Z,100028.47
2022-12-12T15:27:52.203Z,100030.59
2022-12-12T15:30:29.868Z,100036.28
2022-12-12T15:32:57.810Z,100028.44
2022-12-12T15:35:24.652Z,100029.47
2022-12-12T15:37:56.333Z,100041.75
2022-12-12T15:40:26.063Z,100038.50
2022-12-12T15:42:55.828Z,100041.34
2022-12-12T15:45:25.977Z,100052.03
2022-12-12T15:47:54.561Z,100042.75
2022-12-12T15:50:24.597Z,100047.75
2022-12-12T15:53:07.158Z,100039.81
2022-12-12T15:55:34.586Z,100050.28
2022-12-12T15:58:01.905Z,100051.66
2022-12-12T16:00:35.172Z,100055.31
2022-12-12T16:03:05.992Z,100047.59
2022-12-12T16:05:36.239Z,100051.25
2022-12-12T16:08:32.206Z,100054.81
2022-12-12T16:11:05.185Z,100054.59
2022-12-12T16:13:42.042Z,100060.06
2022-12-12T16:16:43.891Z,100067.38
2022-12-12T16:19:43.779Z,100065.81
2022-12-12T16:22:16.158Z,100071.28
2022-12-12T16:24:48.747Z,100068.66
2022-12-12T16:27:15.440Z,100060.72
2022-12-12T16:29:42.257Z,100061.03
2022-12-12T16:32:13.894Z,100061.47
2022-12-12T16:34:41.975Z,100064.81
2022-12-12T16:37:17.361Z,100061.47
2022-12-12T16:39:44.473Z,100071.19
2022-12-12T16:42:19.397Z,100073.31
2022-12-12T16:44:46.572Z,100078.09
2022-12-12T16:47:22.496Z,100080.00
2022-12-12T16:49:49.190Z,100082.59
2022-12-12T16:52:17.522Z,100083.97
2022-12-12T16:54:51.063Z,100090.50
2022-12-12T16:57:19.682Z,100092.41
2022-12-12T16:59:46.303Z,100086.72
2022-12-12T17:02:19.391Z,100093.13
2022-12-12T17:04:46.014Z,100092.81
2022-12-12T17:07:12.660Z,100099.56
2022-12-12T17:09:39.394Z,100100.94
2022-12-12T17:12:08.775Z,100103.00
2022-12-12T17:14:36.061Z,100098.78
2022-12-12T17:17:05.528Z,100107.22
2022-12-12T17:19:32.285Z,100098.44
2022-12-12T17:21:58.930Z,100099.28
2022-12-12T17:24:25.577Z,100106.19
2022-12-12T17:26:52.212Z,100108.34
2022-12-12T17:29:18.933Z,100104.88
2022-12-12T17:31:45.578Z,100101.66
2022-12-12T17:34:12.242Z,100105.69
2022-12-12T17:36:39.082Z,100103.06
2022-12-12T17:39:05.752Z,100103.59
2022-12-12T17:41:32.342Z,100108.53
2022-12-12T17:43:59.022Z,100110.72
2022-12-12T17:46:27.728Z,100111.56
2022-12-12T17:48:56.828Z,100117.13
2022-12-12T17:51:24.299Z,100116.09
2022-12-12T17:53:52.562Z,100116.59
2022-12-12T17:56:24.343Z,100120.53
2022-12-12T17:58:51.044Z,100113.91
2022-12-12T18:01:24.146Z,100122.09
2022-12-12T18:03:51.611Z,100124.22
2022-12-12T18:06:19.682Z,100118.47
2022-12-12T18:08:46.833Z,100125.81
2022-12-12T18:11:16.585Z,100123.72
2022-12-12T18:13:44.359Z,100124.88
2022-12-12T18:16:13.184Z,100130.31
2022-12-12T18:18:40.526Z,100127.72
2022-12-12T18:24:05.635Z,100130.75
2022-12-12T18:26:32.392Z,100132.75
2022-12-12T18:29:01.038Z,100130.22
2022-12-12T18:31:28.316Z,100128.03
2022-12-12T18:33:55.255Z,100133.72
2022-12-12T18:36:23.519Z,100137.16
2022-12-12T18:38:50.746Z,100131.94
2022-12-12T18:41:18.271Z,100125.47
2022-12-12T18:43:44.835Z,100131.97
2022-12-12T18:46:13.986Z,100129.47
2022-12-12T18:48:42.467Z,100126.13
2022-12-12T18:51:18.550Z,100123.41
2022-12-12T18:53:46.278Z,100134.19
2022-12-12T18:56:22.328Z,100142.97
2022-12-12T18:58:48.950Z,100151.75
2022-12-12T19:01:21.635Z,100155.28
2022-12-12T19:03:50.502Z,100154.53
2022-12-12T19:06:19.667Z,100158.31
2022-12-12T19:08:46.446Z,100157.56
2022-12-12T19:11:13.313Z,100158.94
2022-12-12T19:13:40.275Z,100163.22
2022-12-12T19:16:10.681Z,100160.69
2022-12-12T19:18:38.157Z,100158.22
2022-12-12T19:21:06.862Z,100158.41
2022-12-12T19:23:34.055Z,100161.03
2022-12-12T19:26:12.196Z,100162.38
2022-12-12T19:28:38.873Z,100164.38
2022-12-12T19:31:11.371Z,100170.63
2022-12-12T19:33:38.317Z,100169.47
2022-12-12T19:36:14.075Z,100161.75
2022-12-12T19:38:41.113Z,100152.50
2022-12-12T19:41:09.442Z,100152.19
2022-12-12T19:43:36.295Z,100146.53
2022-12-12T19:46:07.952Z,100148.66
2022-12-12T19:48:35.716Z,100138.69
2022-12-12T19:51:12.355Z,100140.50
2022-12-12T19:53:40.886Z,100134.72
2022-12-12T19:56:07.967Z,100139.34
2022-12-12T19:58:38.727Z,100136.63
2022-12-12T20:01:12.404Z,100139.00
2022-12-12T20:03:39.212Z,100135.13
2022-12-12T20:06:10.821Z,100140.66
2022-12-12T20:08:38.302Z,100133.44
2022-12-12T20:11:07.060Z,100130.53
2022-12-12T20:13:34.556Z,100129.59
2022-12-12T20:16:21.984Z,100130.31
2022-12-12T20:18:49.866Z,100118.13
2022-12-12T20:21:59.365Z,100118.91
2022-12-12T20:24:12.010Z,100113.06
2022-12-12T20:26:40.118Z,100116.75
2022-12-12T20:29:07.529Z,100116.13
2022-12-12T20:31:36.465Z,100113.91
2022-12-12T20:34:03.337Z,100111.06
2022-12-12T20:36:34.866Z,100108.72
2022-12-12T20:39:05.074Z,100103.50
2022-12-12T20:41:34.594Z,100104.13
2022-12-12T20:44:01.227Z,100097.84
2022-12-12T20:46:38.430Z,100091.38
2022-12-12T20:49:09.228Z,100092.66
2022-12-12T20:54:24.252Z,100087.50
2022-12-12T20:56:51.265Z,100091.22
2022-12-12T20:59:18.151Z,100087.22
2022-12-12T21:01:44.883Z,100088.75
2022-12-12T21:04:11.613Z,100089.06
2022-12-12T21:06:48.607Z,100094.72
2022-12-12T21:09:22.546Z,100100.88
2022-12-12T21:11:52.336Z,100105.16
2022-12-12T21:14:19.042Z,100097.63
2022-12-12T21:16:45.632Z,100104.44
2022-12-12T21:19:14.238Z,100104.31
2022-12-12T21:21:42.643Z,100099.41
2022-12-12T21:24:11.447Z,100104.44
2022-12-12T21:26:38.107Z,100092.84
2022-12-12T21:29:04.897Z,100083.00
2022-12-12T21:31:37.061Z,100083.88
2022-12-12T21:34:04.948Z,100077.94
2022-12-12T21:36:31.730Z,100080.25
2022-12-12T21:38:59.464Z,100081.38
2022-12-12T21:41:26.493Z,100082.16
2022-12-12T21:43:53.358Z,100081.06
2022-12-12T21:46:22.108Z,100076.56
2022-12-12T21:49:09.373Z,100075.75
2022-12-12T21:51:36.164Z,100078.97
2022-12-12T21:54:07.111Z,100079.59
2022-12-12T21:56:33.933Z,100076.34
2022-12-12T21:59:00.574Z,100080.13
2022-12-12T22:01:27.819Z,100080.00
2022-12-12T22:03:55.136Z,100067.44
2022-12-12T22:06:26.848Z,100071.19
2022-12-12T22:08:57.420Z,100068.72
2022-12-12T22:11:41.524Z,100066.63
2022-12-12T22:14:11.436Z,100069.03
2022-12-12T22:16:38.354Z,100071.69
2022-12-12T22:19:07.785Z,100065.19
2022-12-12T22:21:35.023Z,100070.00
2022-12-12T22:24:02.375Z,100063.75
2022-12-12T22:26:34.593Z,100066.28
2022-12-12T22:29:07.443Z,100066.06
2022-12-12T22:31:37.421Z,100072.94
2022-12-12T22:34:10.651Z,100063.66
2022-12-12T22:36:38.693Z,100073.38
2022-12-12T22:39:07.604Z,100084.53
2022-12-12T22:41:34.664Z,100075.25
2022-12-12T22:44:03.875Z,100085.06
2022-12-12T22:46:30.649Z,100084.56
2022-12-12T22:48:59.512Z,100084.78
2022-12-12T22:51:29.406Z,100089.69
2022-12-12T22:53:57.324Z,100086.44
2022-12-12T22:56:23.965Z,100087.03
2022-12-12T22:58:50.843Z,100088.91
2022-12-12T23:01:19.839Z,100091.97
2022-12-12T23:03:47.218Z,100093.66
2022-12-12T23:06:16.896Z,100104.56
2022-12-12T23:08:44.303Z,100102.53
2022-12-12T23:11:13.547Z,100093.25
2022-12-12T23:13:43.460Z,100102.22
2022-12-12T23:16:12.908Z,100108.84
2022-12-12T23:18:40.483Z,100097.56
2022-12-12T23:21:14.925Z,100100.38
2022-12-12T23:23:43.543Z,100092.97
2022-12-12T23:26:18.770Z,100099.44
2022-12-12T23:28:46.527Z,100099.13
2022-12-12T23:31:21.948Z,100096.72
2022-12-12T23:33:55.222Z,100091.81
2022-12-12T23:36:22.953Z,100105.59
2022-12-12T23:38:54.608Z,100112.38
2022-12-12T23:41:21.453Z,100109.88
2022-12-12T23:43:49.217Z,100106.44
2022-12-12T23:46:28.679Z,100111.34
2022-12-12T23:48:56.670Z,100111.03
2022-12-12T23:51:24.483Z,100103.59
2022-12-12T23:53:51.149Z,100110.91
2022-12-12T23:56:17.827Z,100113.94
2022-12-12T23:58:44.754Z,100113.22
